PAJN/JNU METAR and TAF weather

Enter ICAO airport designator
Station Type Date Time Source
PAJN METAR 2021/09/16 10:53 UTC NOAA

PAJN 161053Z 09006KT 10SM -RA FEW007 BKN038 OVC050 09/07 A3000 RMK AO2 SLP158 P0001 T00940072 $


Station Type Date Time Source
PAJN Decoded METAR 2021/09/16 10:53 UTC NOAA

JUNEAU INTERNATIONAL AIRPORT, AK, United States (PAJN) 58-21N 134-34W 8M
Sep 16, 2021 - 06:53 AM EDT / 2021.09.16 1053 UTC
Wind: from the E (090 degrees) at 7 MPH (6 KT):0
Visibility: 10 mile(s):0
Sky conditions: overcast
Weather: light rain
Precipitation last hour: 0.01 inches
Temperature: 48.9 F (9.4 C)
Dew Point: 45.0 F (7.2 C)
Relative Humidity: 86%
Pressure (altimeter): 30 in. Hg (1015 hPa)
ob: PAJN 161053Z 09006KT 10SM -RA FEW007 BKN038 OVC050 09/07 A3000 RMK AO2 SLP158 P0001 T00940072
cycle: 11

Station Type Date Time Source
PAJN TAF 2021/09/16 12:30 UTC NOAA

TAF PAJN 161129Z 1612/1712 09005KT 6SM -RA FEW007 BKN035 OVC050
TEMPO 1612/1615 5SM -RA BR BKN025 OVC040
FM161500 12012G20KT 5SM -RA BR OVC025
FM170000 11011KT 6SM -RA SCT025 OVC040
FM170300 10008KT P6SM VCSH OVC050

Example: see airport list